Terminal Aerodrome Forecast
Issued by NWS Kansas City/Pleasant Hill, MO

Home | Current Version | Previous Version | Text Only | Print | Product List | Glossary On
Versions: 1 2 3 4 5 6 7 8 9 10 11 12
000
FTUS43 KEAX 302320
TAFMCI
TAF
KMCI 302320Z 0100/0124 04007KT P6SM FEW250
     FM010900 01004KT P6SM BKN015
     FM011600 36005KT P6SM BKN020
     FM011800 35006KT P6SM BKN035=

USA.gov is the U.S. government's official web portal to all federal, state and local government web resources and services.